Addison, Vermont
Current Conditions -  °F | °C
As of 8:55 PM on Friday 31 Oct 2014 (Local Time) from K6B0 Reporting Station
Overcast Overcast  
Wind Chill: 39°   Ceiling: 6000
Heat Index: 42°   Visibility: 10mi
Dew Point: 32°   Wind: 5mph
Humidity: 69%   Direction: 10°N
Pressure: 30.02"   Gusts: NA
Location:  44.0804°N, 73.3324°W
Report Text: K6B0 010055Z AUTO 01004KT 10SM OVC060 06/00 A3002 RMK AO2 T00550002
Loading
Personal Weather Stations






























Interactive Weather Map
Tropical Storm Tracking
New forecast layout! Learn more

10-Day Weather Forecast

Advertisements
Track Severe Weather on mobile